Time;durP1;ratioP1;P1;durP2;ratioP2;P2;SDS_P1;SDS_P2;PMS_P1;PMS_P2;Temp;Humidity;BMP_temperature;BMP_pressure;BME280_temperature;BME280_humidity;BME280_pressure;Samples;Min_cycle;Max_cycle;Signal;HPM_P1;HPM_P2
2021/11/02 00:01:03;;;;;;;;;;;;;;;9.80;100.00;97487.47;5011455;28;19925;-68
2021/11/02 00:03:29;;;;;;;;;;;;;;;9.76;100.00;97485.97;5011297;28;19928;-69
2021/11/02 00:05:54;;;;;;;;;;;;;;;9.79;100.00;97488.38;5012979;28;19921;-68
2021/11/02 00:08:19;;;;;;;;;;;;;;;9.71;100.00;97486.19;5012777;28;19924;-69
2021/11/02 00:10:45;;;;;;;;;;;;;;;9.84;100.00;97478.69;5013465;28;20011;-68
2021/11/02 00:13:10;;;;;;;;;;;;;;;9.57;100.00;97481.78;5012158;28;19921;-69
2021/11/02 00:15:37;;;;;;;;;;;;;;;9.93;100.00;97485.91;5012310;28;19960;-68
2021/11/02 00:18:05;;;;;;;;;;;;;;;9.87;100.00;97487.97;5011594;28;20336;-69
2021/11/02 00:20:31;;;;;;;;;;;;;;;9.57;100.00;97480.97;5012762;28;20472;-68
2021/11/02 00:22:58;;;;;;;;;;;;;;;9.76;100.00;97483.38;5014604;28;20999;-67
2021/11/02 00:25:50;;;;;;;;;;;;;;;9.83;100.00;97482.19;5014448;28;20376;-67
2021/11/02 00:28:35;;;;;;;;;;;;;;;9.99;100.00;97479.59;5011157;28;19933;-68
2021/11/02 00:31:01;;;;;;;;;;;;;;;9.72;100.00;97476.78;5011996;28;19925;-68
2021/11/02 00:33:27;;;;;;;;;;;;;;;9.89;100.00;97481.81;5010121;28;20503;-68
2021/11/02 00:35:53;;;;;;;;;;;;;;;9.84;100.00;97478.69;5013859;28;19971;-68
2021/11/02 00:38:18;;;;;;;;;;;;;;;9.82;100.00;97478.75;5011557;28;19941;-69
2021/11/02 00:40:46;;;;;;;;;;;;;;;9.85;100.00;97480.31;5012092;28;19928;-68
2021/11/02 00:43:11;;;;;;;;;;;;;;;9.82;100.00;97475.34;5011918;28;20056;-67
2021/11/02 00:45:37;;;;;;;;;;;;;;;9.82;100.00;97475.34;5011566;28;20632;-68
2021/11/02 00:48:04;;;;;;;;;;;;;;;9.64;100.00;97477.97;5012694;28;19932;-68
2021/11/02 00:50:30;;;;;;;;;;;;;;;9.80;100.00;97477.19;5010854;28;19925;-67
2021/11/02 00:52:56;;;;;;;;;;;;;;;10.25;100.00;97473.03;5012921;28;19963;-67
2021/11/02 00:55:21;;;;;;;;;;;;;;;10.29;100.00;97468.59;5011090;28;19921;-68
2021/11/02 00:57:47;;;;;;;;;;;;;;;10.16;100.00;97473.53;5012107;28;19936;-69
2021/11/02 01:00:13;;;;;;;;;;;;;;;10.07;100.00;97463.75;5009951;28;20019;-66
2021/11/02 01:02:38;;;;;;;;;;;;;;;9.96;100.00;97462.56;5008378;28;20019;-66
2021/11/02 01:05:04;;;;;;;;;;;;;;;10.05;100.00;97464.66;5008381;28;19917;-68
2021/11/02 01:07:29;;;;;;;;;;;;;;;9.70;100.00;97466.56;5011665;28;19917;-68
2021/11/02 01:09:54;;;;;;;;;;;;;;;10.08;100.00;97465.41;5012232;28;19933;-68
2021/11/02 01:12:20;;;;;;;;;;;;;;;9.93;100.00;97467.91;5011375;28;21029;-69
2021/11/02 01:14:45;;;;;;;;;;;;;;;9.86;100.00;97460.59;5011635;28;19921;-68
2021/11/02 01:17:11;;;;;;;;;;;;;;;9.91;100.00;97456.88;5011464;28;19925;-67
2021/11/02 01:19:36;;;;;;;;;;;;;;;10.08;100.00;97453.38;5012135;28;19924;-68
2021/11/02 01:22:02;;;;;;;;;;;;;;;10.17;100.00;97449.47;5002665;28;19917;-67
2021/11/02 01:24:27;;;;;;;;;;;;;;;9.93;100.00;97459.38;5011346;28;19936;-68
2021/11/02 01:26:53;;;;;;;;;;;;;;;9.87;100.00;97450.22;5011801;28;19983;-68
2021/11/02 01:29:18;;;;;;;;;;;;;;;9.98;100.00;97458.19;5009059;28;21306;-69
2021/11/02 01:31:46;;;;;;;;;;;;;;;9.92;100.00;97461.13;5010683;28;19921;-68
2021/11/02 01:34:12;;;;;;;;;;;;;;;9.81;100.00;97458.28;5012192;28;20368;-68
2021/11/02 01:36:38;;;;;;;;;;;;;;;9.96;100.00;97449.72;5025160;28;19921;-69
2021/11/02 01:39:06;;;;;;;;;;;;;;;9.69;100.00;97454.59;5008661;28;19921;-68
2021/11/02 01:41:31;;;;;;;;;;;;;;;9.98;100.00;97455.63;5008578;28;19925;-68
2021/11/02 01:43:57;;;;;;;;;;;;;;;9.71;100.00;97467.38;5011106;28;20284;-69
2021/11/02 01:46:23;;;;;;;;;;;;;;;9.87;100.00;97463.06;5010540;28;19921;-68
2021/11/02 01:48:50;;;;;;;;;;;;;;;9.73;100.00;97460.41;5008348;28;19937;-68
2021/11/02 01:51:16;;;;;;;;;;;;;;;9.69;100.00;97458.91;5008034;28;19929;-67
2021/11/02 01:53:41;;;;;;;;;;;;;;;9.64;100.00;97457.41;5010727;28;19996;-68
2021/11/02 01:56:08;;;;;;;;;;;;;;;9.74;100.00;97462.06;5008941;28;19921;-68
2021/11/02 01:58:34;;;;;;;;;;;;;;;9.70;100.00;97463.16;5011714;28;20436;-68
2021/11/02 02:00:59;;;;;;;;;;;;;;;9.84;100.00;97460.69;5008888;28;19961;-68
2021/11/02 02:03:37;;;;;;;;;;;;;;;10.12;100.00;97461.75;5009310;28;20003;-68
2021/11/02 02:06:05;;;;;;;;;;;;;;;10.18;100.00;97461.44;5010166;28;19952;-68
2021/11/02 02:08:36;;;;;;;;;;;;;;;9.67;100.00;97463.31;5010488;28;19975;-68
2021/11/02 02:11:20;;;;;;;;;;;;;;;9.81;100.00;97460.84;5010127;28;19975;-68
2021/11/02 02:13:49;;;;;;;;;;;;;;;9.92;100.00;97476.53;5009865;28;19921;-68
2021/11/02 02:16:20;;;;;;;;;;;;;;;9.97;100.00;97466.81;5007753;28;20023;-68
2021/11/02 02:18:48;;;;;;;;;;;;;;;10.01;100.00;97467.47;5010150;28;19925;-68
2021/11/02 02:21:33;;;;;;;;;;;;;;;9.89;100.00;97471.53;5008491;28;19917;-67
2021/11/02 02:24:13;;;;;;;;;;;;;;;9.87;100.00;97468.22;5009385;28;19925;-68
2021/11/02 02:26:46;;;;;;;;;;;;;;;10.10;100.00;97463.56;5007162;28;20293;-68
2021/11/02 02:29:12;;;;;;;;;;;;;;;10.01;100.00;97463.19;5008455;28;19917;-68
2021/11/02 02:31:38;;;;;;;;;;;;;;;9.76;100.00;97460.25;5007589;28;20435;-68
2021/11/02 02:34:04;;;;;;;;;;;;;;;10.04;100.00;97460.44;5007484;28;19922;-67
2021/11/02 02:36:32;;;;;;;;;;;;;;;10.20;100.00;97454.47;5005434;28;20636;-69
2021/11/02 02:38:57;;;;;;;;;;;;;;;9.90;100.00;97454.38;5008038;28;19967;-68
2021/11/02 02:41:23;;;;;;;;;;;;;;;10.31;100.00;97461.59;5008681;28;20035;-69
2021/11/02 02:43:48;;;;;;;;;;;;;;;10.35;100.00;97450.22;5007923;28;19917;-68
2021/11/02 02:46:13;;;;;;;;;;;;;;;10.36;100.00;97450.13;5005670;28;19979;-68
2021/11/02 02:48:39;;;;;;;;;;;;;;;10.14;100.00;97450.47;5009342;28;20345;-68
2021/11/02 02:51:05;;;;;;;;;;;;;;;10.31;100.00;97452.16;5006852;28;20477;-69
2021/11/02 02:53:30;;;;;;;;;;;;;;;10.27;100.00;97455.78;5007024;28;20600;-68
2021/11/02 02:56:01;;;;;;;;;;;;;;;10.29;100.00;97453.97;5004353;28;19928;-68
2021/11/02 02:58:33;;;;;;;;;;;;;;;10.39;100.00;97455.09;5008988;28;19928;-67
2021/11/02 03:00:59;;;;;;;;;;;;;;;10.33;100.00;97452.03;5004781;28;20067;-68
2021/11/02 03:03:24;;;;;;;;;;;;;;;10.42;100.00;97454.94;5007052;28;19917;-67
2021/11/02 03:05:53;;;;;;;;;;;;;;;10.55;100.00;97449.09;5005035;28;20507;-67
2021/11/02 03:08:19;;;;;;;;;;;;;;;10.81;100.00;97443.28;5007311;28;19932;-68
2021/11/02 03:10:44;;;;;;;;;;;;;;;10.13;100.00;97437.69;5007294;28;19952;-68
2021/11/02 03:13:12;;;;;;;;;;;;;;;9.87;100.00;97447.66;5007135;28;19921;-68
2021/11/02 03:18:29;;;;;;;;;;;;;;;9.86;100.00;97445.19;5007167;28;20297;-68
2021/11/02 03:51:30;;;;;;;;;;;;;;;9.83;100.00;97465.00;5013046;28;19936;-67
2021/11/02 04:23:57;;;;;;;;;;;;;;;9.81;100.00;97471.13;4978178;28;19968;-67
2021/11/02 05:47:03;;;;;;;;;;;;;;;9.46;100.00;97431.88;4962105;28;19929;-68
2021/11/02 05:49:54;;;;;;;;;;;;;;;9.37;100.00;97430.59;4961991;28;19926;-68
2021/11/02 05:59:53;;;;;;;;;;;;;;;9.43;100.00;97427.72;4960882;28;19924;-69
2021/11/02 06:29:27;;;;;;;;;;;;;;;8.30;100.00;97453.03;5008727;28;20789;-68
2021/11/02 06:31:59;;;;;;;;;;;;;;;8.36;100.00;97452.72;5010024;28;19928;-69
2021/11/02 06:37:45;;;;;;;;;;;;;;;8.30;100.00;97463.28;4988133;28;19921;-68
2021/11/02 07:18:47;;;;;;;;;;;;;;;8.85;100.00;97466.66;4971431;28;19964;-68
2021/11/02 07:21:29;;;;;;;;;;;;;;;8.83;100.00;97468.47;4972008;28;19957;-70
2021/11/02 07:24:02;;;;;;;;;;;;;;;8.98;100.00;97465.13;4971324;28;19921;-69
2021/11/02 07:26:49;;;;;;;;;;;;;;;8.74;100.00;97468.03;4972885;28;20863;-69
2021/11/02 08:47:13;;;;;;;;;;;;;;;10.29;100.00;97453.97;5014450;28;20021;-68
2021/11/02 08:49:41;;;;;;;;;;;;;;;10.40;100.00;97449.06;5008130;28;19925;-67
2021/11/02 08:52:07;;;;;;;;;;;;;;;10.01;100.00;97458.03;5009810;28;19917;-67
2021/11/02 08:54:36;;;;;;;;;;;;;;;10.33;100.00;97458.03;5010425;28;19913;-68
2021/11/02 08:57:02;;;;;;;;;;;;;;;11.04;100.00;97449.69;5011479;28;19921;-68
2021/11/02 08:59:27;;;;;;;;;;;;;;;11.15;100.00;97441.28;5010447;28;19917;-68
2021/11/02 09:01:57;;;;;;;;;;;;;;;10.58;100.00;97448.91;5012343;28;20422;-68
2021/11/02 09:04:22;;;;;;;;;;;;;;;10.75;100.00;97451.38;5009933;28;20380;-67
2021/11/02 09:06:48;;;;;;;;;;;;;;;10.80;100.00;97446.78;5009623;28;19917;-68
2021/11/02 09:09:14;;;;;;;;;;;;;;;11.10;100.00;97457.03;5011798;28;19917;-67
2021/11/02 09:11:40;;;;;;;;;;;;;;;11.11;100.00;97460.44;5009921;28;19962;-67
2021/11/02 09:14:05;;;;;;;;;;;;;;;11.07;100.00;97461.53;5009292;28;19967;-67
2021/11/02 09:16:31;;;;;;;;;;;;;;;11.60;100.00;97460.06;5011336;28;20054;-67
2021/11/02 09:18:56;;;;;;;;;;;;;;;11.38;100.00;97457.13;5009313;28;19921;-68
2021/11/02 09:21:22;;;;;;;;;;;;;;;11.80;100.00;97452.88;5009724;28;19924;-67
2021/11/02 09:23:48;;;;;;;;;;;;;;;11.40;100.00;97450.97;5009459;28;19928;-67
2021/11/02 09:26:19;;;;;;;;;;;;;;;11.51;100.00;97455.47;5010373;28;19917;-67
2021/11/02 09:28:45;;;;;;;;;;;;;;;11.37;100.00;97458.06;5009997;28;20025;-67
2021/11/02 09:31:11;;;;;;;;;;;;;;;11.19;100.00;97462.56;5008535;28;20376;-67
2021/11/02 09:33:36;;;;;;;;;;;;;;;11.43;100.00;97463.69;5009793;28;19917;-68
2021/11/02 09:36:03;;;;;;;;;;;;;;;11.49;100.00;97454.75;5010777;28;19967;-67
2021/11/02 09:38:49;;;;;;;;;;;;;;;11.15;100.00;97464.47;5010559;28;19917;-66
2021/11/02 09:41:18;;;;;;;;;;;;;;;11.73;100.00;97455.84;5009443;28;19924;-66
2021/11/02 09:43:54;;;;;;;;;;;;;;;11.67;100.00;97456.19;5008912;28;20324;-67
2021/11/02 09:46:38;;;;;;;;;;;;;;;11.24;100.00;97457.97;5009340;28;19924;-67
2021/11/02 09:49:23;;;;;;;;;;;;;;;11.82;100.00;97454.44;5009070;28;19925;-67
2021/11/02 09:51:54;;;;;;;;;;;;;;;11.91;100.00;97455.66;5010506;28;19921;-67
2021/11/02 09:54:44;;;;;;;;;;;;;;;11.61;100.00;97461.75;5008883;28;20380;-67
2021/11/02 09:57:14;;;;;;;;;;;;;;;11.85;100.00;97458.56;5010350;28;19964;-67
2021/11/02 09:59:59;;;;;;;;;;;;;;;11.50;100.00;97459.00;5008530;28;20026;-67
2021/11/02 10:02:43;;;;;;;;;;;;;;;11.68;100.00;97455.28;5006640;28;19918;-67
2021/11/02 10:05:48;;;;;;;;;;;;;;;11.49;100.00;97455.59;5008579;28;20023;-67
2021/11/02 10:08:19;;;;;;;;;;;;;;;11.88;100.00;97453.25;4981600;28;19917;-67
2021/11/02 10:10:59;;;;;;;;;;;;;;;11.88;100.00;97451.53;5006769;28;19921;-67
2021/11/02 10:13:43;;;;;;;;;;;;;;;11.66;100.00;97444.25;5009002;28;19928;-67
2021/11/02 10:16:29;;;;;;;;;;;;;;;11.68;100.00;97441.56;5008763;28;19921;-67
2021/11/02 10:19:12;;;;;;;;;;;;;;;11.34;100.00;97447.97;5008280;28;20012;-67
2021/11/02 10:21:37;;;;;;;;;;;;;;;11.39;100.00;97445.91;4997366;28;20397;-70
2021/11/02 10:24:17;;;;;;;;;;;;;;;11.49;100.00;97441.84;5008968;28;19913;-66
2021/11/02 10:27:01;;;;;;;;;;;;;;;12.11;100.00;97429.44;5008864;28;20021;-67
2021/11/02 10:29:52;;;;;;;;;;;;;;;11.88;100.00;97427.47;5009923;28;19917;-67
2021/11/02 10:32:18;;;;;;;;;;;;;;;12.33;100.00;97426.28;5007380;28;20408;-67
2021/11/02 10:34:58;;;;;;;;;;;;;;;12.27;100.00;97425.84;5009293;28;19924;-67
2021/11/02 10:37:23;;;;;;;;;;;;;;;11.94;100.00;97427.09;5009450;28;19924;-66
2021/11/02 10:40:01;;;;;;;;;;;;;;;12.38;100.00;97433.75;5010253;28;19917;-66
2021/11/02 10:42:29;;;;;;;;;;;;;;;12.19;100.00;97425.53;5009131;28;19945;-66
2021/11/02 10:44:56;;;;;;;;;;;;;;;12.14;100.00;97424.06;5008763;28;19924;-67
2021/11/02 10:47:22;;;;;;;;;;;;;;;12.70;100.00;97425.66;5008006;28;20332;-67
2021/11/02 10:49:58;;;;;;;;;;;;;;;12.30;100.00;97426.50;5008191;28;20305;-67
2021/11/02 10:52:27;;;;;;;;;;;;;;;13.04;100.00;97423.41;5007185;28;20475;-67
2021/11/02 10:55:18;;;;;;;;;;;;;;;12.88;100.00;97419.25;5006433;28;19921;-67
2021/11/02 10:57:49;;;;;;;;;;;;;;;12.92;100.00;97415.56;5002036;28;20333;-67
2021/11/02 11:00:20;;;;;;;;;;;;;;;13.03;100.00;97411.44;5004861;28;19921;-67
2021/11/02 11:02:46;;;;;;;;;;;;;;;12.96;100.00;97414.44;5008152;28;19991;-67
2021/11/02 11:05:11;;;;;;;;;;;;;;;12.13;100.00;97421.56;5007072;28;20377;-67
2021/11/02 11:07:48;;;;;;;;;;;;;;;11.89;100.00;97413.66;5004174;28;19966;-67
2021/11/02 11:10:15;;;;;;;;;;;;;;;12.27;100.00;97412.94;5006962;28;20450;-67
2021/11/02 11:12:46;;;;;;;;;;;;;;;12.51;100.00;97411.38;5006319;28;19917;-67
2021/11/02 11:15:11;;;;;;;;;;;;;;;12.42;100.00;97411.97;5006945;28;19919;-66
2021/11/02 11:17:37;;;;;;;;;;;;;;;12.05;100.00;97411.75;5005180;28;19928;-67
2021/11/02 11:20:07;;;;;;;;;;;;;;;12.46;100.00;97412.59;5007778;23;20658;-67
2021/11/02 11:22:43;;;;;;;;;;;;;;;12.71;100.00;97401.50;4961712;28;19932;-67
2021/11/02 11:25:13;;;;;;;;;;;;;;;12.78;100.00;97407.91;4987186;28;19925;-67
2021/11/02 11:27:51;;;;;;;;;;;;;;;12.64;100.00;97405.41;4988028;28;19975;-67
2021/11/02 11:30:22;;;;;;;;;;;;;;;12.66;100.00;97409.56;4968279;28;19996;-67
2021/11/02 11:32:54;;;;;;;;;;;;;;;13.18;100.00;97411.22;4989867;28;19921;-67
2021/11/02 11:35:20;;;;;;;;;;;;;;;12.56;100.00;97423.97;4987769;28;19921;-66
2021/11/02 11:37:49;;;;;;;;;;;;;;;11.42;100.00;97427.69;4991220;28;19928;-66
2021/11/02 11:40:18;;;;;;;;;;;;;;;11.72;100.00;97423.25;4980854;28;19917;-66
2021/11/02 11:42:47;;;;;;;;;;;;;;;12.45;100.00;97416.94;4976646;28;19921;-66
2021/11/02 11:45:17;;;;;;;;;;;;;;;12.33;100.00;97412.56;4977168;28;19922;-66
2021/11/02 11:48:03;;;;;;;;;;;;;;;12.39;100.00;97413.94;4975967;28;20757;-66
2021/11/02 11:50:32;;;;;;;;;;;;;;;12.93;100.00;97411.19;4986813;28;20009;-65
2021/11/02 11:53:04;;;;;;;;;;;;;;;12.64;100.00;97415.75;4976620;28;19957;-66
2021/11/02 11:55:37;;;;;;;;;;;;;;;12.23;100.00;97417.50;4971156;28;19920;-66
2021/11/02 11:58:16;;;;;;;;;;;;;;;12.69;100.00;97413.69;4996739;28;19924;-66
2021/11/02 12:00:46;;;;;;;;;;;;;;;12.80;100.00;97405.22;4993654;28;19921;-66
2021/11/02 12:03:20;;;;;;;;;;;;;;;12.97;100.00;97408.31;4994123;28;20389;-66
2021/11/02 12:05:47;;;;;;;;;;;;;;;12.80;100.00;97405.22;4981410;28;19917;-66
2021/11/02 12:08:20;;;;;;;;;;;;;;;13.69;100.00;97396.59;4979081;28;19929;-69
2021/11/02 12:10:46;;;;;;;;;;;;;;;13.90;100.00;97407.16;4999621;28;19928;-69
2021/11/02 12:13:12;;;;;;;;;;;;;;;13.55;100.00;97408.72;4980774;28;19914;-69
2021/11/02 12:15:41;;;;;;;;;;;;;;;12.94;100.00;97398.19;4981549;28;19920;-69
2021/11/02 12:18:07;;;;;;;;;;;;;;;13.35;100.00;97404.91;4963002;28;19921;-69
2021/11/02 12:20:41;;;;;;;;;;;;;;;12.95;100.00;97393.84;4979999;28;19922;-69
2021/11/02 12:23:17;;;;;;;;;;;;;;;13.59;100.00;97389.47;4993145;28;19914;-68
2021/11/02 12:25:53;;;;;;;;;;;;;;;12.80;100.00;97395.72;4982531;28;19932;-69
2021/11/02 12:28:38;;;;;;;;;;;;;;;13.37;100.00;97390.13;4980481;28;20279;-69
2021/11/02 12:31:14;;;;;;;;;;;;;;;13.26;100.00;97387.44;4997819;28;19922;-69
2021/11/02 12:33:59;;;;;;;;;;;;;;;13.47;100.00;97394.66;4994484;28;19921;-69
2021/11/02 12:36:28;;;;;;;;;;;;;;;13.37;100.00;97389.31;4978416;28;19920;-69
2021/11/02 12:39:00;;;;;;;;;;;;;;;13.01;100.00;97395.22;4999226;28;20428;-69
2021/11/02 12:41:26;;;;;;;;;;;;;;;12.92;100.00;97394.06;4995924;28;19920;-69
2021/11/02 12:44:12;;;;;;;;;;;;;;;12.72;100.00;97387.63;4982399;28;20285;-69
2021/11/02 12:46:39;;;;;;;;;;;;;;;13.15;100.00;97389.91;4976583;28;19917;-69
2021/11/02 12:49:05;;;;;;;;;;;;;;;13.40;100.00;97391.69;4998373;28;19921;-69
2021/11/02 12:51:34;;;;;;;;;;;;;;;12.55;100.00;97392.16;4989455;28;19956;-69
2021/11/02 12:54:01;;;;;;;;;;;;;;;12.77;100.00;97394.16;4983288;28;20000;-69
2021/11/02 12:56:27;;;;;;;;;;;;;;;13.25;100.00;97390.97;4983924;28;20071;-69
2021/11/02 12:58:59;;;;;;;;;;;;;;;13.51;100.00;97383.19;4973445;28;20001;-69
2021/11/02 13:01:34;;;;;;;;;;;;;;;13.36;100.00;97391.06;4997356;28;19914;-69
2021/11/02 13:04:02;;;;;;;;;;;;;;;13.42;100.00;97389.00;4962229;28;19921;-69
2021/11/02 13:06:35;;;;;;;;;;;;;;;13.06;100.00;97385.38;4994971;28;20304;-71
2021/11/02 13:09:02;;;;;;;;;;;;;;;13.15;100.00;97395.91;4975983;28;19913;-66
2021/11/02 13:11:29;;;;;;;;;;;;;;;13.00;100.00;97389.22;4974204;28;20716;-70
2021/11/02 13:13:57;;;;;;;;;;;;;;;12.42;100.00;97382.75;4969569;28;20012;-69
2021/11/02 13:16:29;;;;;;;;;;;;;;;12.98;100.00;97384.16;4987394;28;19917;-69
2021/11/02 13:18:54;;;;;;;;;;;;;;;12.84;100.00;97376.50;4970617;28;20004;-68
2021/11/02 13:21:26;;;;;;;;;;;;;;;13.41;100.00;97379.56;4990006;28;20028;-68
2021/11/02 13:24:03;;;;;;;;;;;;;;;13.43;100.00;97377.69;4971350;28;19921;-70
2021/11/02 13:26:30;;;;;;;;;;;;;;;12.73;100.00;97376.41;4953905;28;20008;-66
2021/11/02 13:29:11;;;;;;;;;;;;;;;13.42;100.00;97381.22;4979710;28;20006;-67
2021/11/02 13:31:37;;;;;;;;;;;;;;;13.54;100.00;97376.00;4993992;28;20341;-67
2021/11/02 13:34:06;;;;;;;;;;;;;;;13.77;100.00;97379.56;4959123;28;20029;-66
2021/11/02 13:36:32;;;;;;;;;;;;;;;13.49;100.00;97382.47;4975479;28;19914;-67
2021/11/02 13:38:59;;;;;;;;;;;;;;;13.31;100.00;97382.78;4977892;28;19928;-71
2021/11/02 13:41:30;;;;;;;;;;;;;;;12.89;100.00;97376.19;4973876;28;19928;-72
2021/11/02 13:43:56;;;;;;;;;;;;;;;13.21;100.00;97384.34;4994201;28;19922;-72
2021/11/02 13:46:23;;;;;;;;;;;;;;;13.61;100.00;97371.25;4992209;28;19925;-70
2021/11/02 13:48:49;;;;;;;;;;;;;;;13.78;100.00;97372.66;4995374;28;19925;-71
2021/11/02 13:51:16;;;;;;;;;;;;;;;13.69;100.00;97379.28;4993907;28;19922;-71
